El Arish, Egypt

1:56 AM EET on September 03, 2014 (GMT +0200)
El Arish International | Change Station
CLOSE
Current Station
Airport
Location: El Arish,
Elevation: 105 ft
Nearby Weather Stations

Elev 105 ft 31.07 °N, 33.84 °E | Updated 56 minutes ago

Clear
Clear
73 °F
Feels Like 73 °F
N
0
Wind Variable Wind from North

Today
High -- | Low -- °F
--% Chance of Precip.
Yesterday
High -- | Low -- °F
Precip. -- in
5:21 AM 6:05 PM
First Quarter, 56% visible
Pressure 29.83 in
Visibility -9999.0 miles
Clouds
Dew Point 64 °F
Humidity 73%
Rainfall 0.00 in
Snow Depth Not available.
UV Not available.
Pollen Not available.
Air Quality Not available.
Flu Activity Not available.
METAR HEAR 022300Z 00000KT CAVOK 23/18 Q1010 NOSIG

More Conditions Fewer Conditions

Pressure 29.83 in
Visibility -9999.0 miles
Clouds
Dew Point 64 °F
Humidity 73%
Rainfall 0.00 in
Snow Depth Not available.
UV Not available.
Pollen Not available.
Air Quality Not available.
Flu Activity Not available.
METAR HEAR 022300Z 00000KT CAVOK 23/18 Q1010 NOSIG

More Conditions Fewer Conditions

10-Day Weather Forecast

Almanac

Astronomy

Sep. 03, 2014 Rise Set
Actual Time 5:21 AM EET 6:05 PM EET
Civil Twilight 4:57 AM EET 6:30 PM EET
Nautical Twilight 4:28 AM EET 6:59 PM EET
Astronomical Twilight 3:58 AM EET 7:28 PM EET
Moon 1:15 PM EET (9/3) No Moon Set
Length of Visible Light 13h 33m
Length of Day
12h 44m
Tomorrow will be 1m 49s shorter.
First Quarter, 56% of the Moon is Illuminated
Sep 2
First Quarter
Sep 8
Full
Sep 15
Last Quarter
Sep 24
New
Oct 1
First Quarter

Yesterday's Extremes

Country Highs Country Lows

Community

WunderPhotos

Upload Photos

1,749,799 photos uploaded!

Nearby

Snow Depth

Not available.

Earthquake Activity

City Distance Mag. Time & Date
No recent earthquake activity has been reported nearby.
Minimum magnitude displayed is 2.5.

Coastal Water Temperatures

Place Temperature
No Stations Reporting

Nearby Weather Stations